createdAt,value
2017-10-30T00:00:18.093Z,57.94
2017-10-30T00:01:18.440Z,57.18
2017-10-30T00:02:18.060Z,57.84
2017-10-30T00:03:18.370Z,56.89
2017-10-30T00:04:18.357Z,55.28
2017-10-30T00:05:18.003Z,56.13
2017-10-30T00:06:18.314Z,55.85
2017-10-30T00:07:18.299Z,58.7
2017-10-30T00:08:18.283Z,58.03
2017-10-30T00:09:17.934Z,57.28
2017-10-30T00:10:17.914Z,57.75
2017-10-30T00:11:18.225Z,58.32
2017-10-30T00:12:18.207Z,57.28
2017-10-30T00:13:18.182Z,58.03
2017-10-30T00:14:17.833Z,56.7
2017-10-30T00:15:17.812Z,57.94
2017-10-30T00:16:18.131Z,59.08
2017-10-30T00:17:17.783Z,59.46
2017-10-30T00:18:18.096Z,58.03
2017-10-30T00:19:17.739Z,57.09
2017-10-30T00:20:18.063Z,58.41
2017-10-30T00:21:17.700Z,59.08
2017-10-30T00:22:17.686Z,58.61
2017-10-30T00:23:17.665Z,59.27
2017-10-30T00:24:17.982Z,59.46
2017-10-30T00:25:17.960Z,58.22
2017-10-30T00:26:17.947Z,59.17
2017-10-30T00:27:17.592Z,58.61
2017-10-30T00:28:17.900Z,58.51
2017-10-30T00:29:17.561Z,59.55
2017-10-30T00:30:17.870Z,58.61
2017-10-30T00:31:17.846Z,58.8
2017-10-30T00:32:17.934Z,58.61
2017-10-30T00:33:17.488Z,59.17
2017-10-30T00:34:17.799Z,58.7
2017-10-30T00:35:17.445Z,57.65
2017-10-30T00:36:17.424Z,58.89
2017-10-30T00:37:17.789Z,57.94
2017-10-30T00:38:17.717Z,58.8
2017-10-30T00:39:17.365Z,58.13
2017-10-30T00:40:17.693Z,57.56
2017-10-30T00:41:17.662Z,58.89
2017-10-30T00:42:17.644Z,58.32
2017-10-30T00:43:17.636Z,59.17
2017-10-30T00:44:17.273Z,59.27
2017-10-30T00:45:17.266Z,58.7
2017-10-30T00:46:17.569Z,57.46
2017-10-30T00:47:17.665Z,56.42
2017-10-30T00:48:17.197Z,58.03
2017-10-30T00:49:17.177Z,57.28
2017-10-30T00:50:17.159Z,58.03
2017-10-30T00:51:17.141Z,57.18
2017-10-30T00:52:17.453Z,56.51
2017-10-30T00:53:17.444Z,56.89
2017-10-30T00:54:17.414Z,57.37
2017-10-30T00:55:17.068Z,57.18
2017-10-30T00:56:17.378Z,55.47
2017-10-30T00:57:17.028Z,54.14
2017-10-30T00:58:17.009Z,55.09
2017-10-30T00:59:17.329Z,55.18
2017-10-30T01:00:17.303Z,55.37
2017-10-30T01:01:17.488Z,56.13
2017-10-30T01:02:16.930Z,54.14
2017-10-30T01:03:16.910Z,53.28
2017-10-30T01:04:16.895Z,52.81
2017-10-30T01:05:16.876Z,53.09
2017-10-30T01:06:17.190Z,54.14
2017-10-30T01:07:17.177Z,53.19
2017-10-30T01:08:17.160Z,54.14
2017-10-30T01:09:17.142Z,53.95
2017-10-30T01:10:16.787Z,53.28
2017-10-30T01:11:17.101Z,54.9
2017-10-30T01:12:17.090Z,54.61
2017-10-30T01:13:16.734Z,54.24
2017-10-30T01:14:17.042Z,54.14
2017-10-30T01:15:17.021Z,54.43
2017-10-30T01:16:17.040Z,54.33
2017-10-30T01:17:16.978Z,54.24
2017-10-30T01:18:16.630Z,53.64
2017-10-30T01:19:16.943Z,53.28
2017-10-30T01:20:16.931Z,51.01
2017-10-30T01:21:16.576Z,52.24
2017-10-30T01:22:16.886Z,52.53
2017-10-30T01:23:16.866Z,51.57
2017-10-30T01:24:16.849Z,52.05
2017-10-30T01:25:16.496Z,51.1
2017-10-30T01:26:16.822Z,51.29
2017-10-30T01:27:16.808Z,51.01
2017-10-30T01:28:16.776Z,50.24
2017-10-30T01:29:16.755Z,49.87
2017-10-30T01:30:16.402Z,48.89
2017-10-30T01:31:17.120Z,49.84
2017-10-30T01:32:16.366Z,50.12
2017-10-30T01:33:16.444Z,48.7
2017-10-30T01:34:16.322Z,49.84
2017-10-30T01:35:16.644Z,50.15
2017-10-30T01:36:16.289Z,50.15
2017-10-30T01:37:16.626Z,51.17
2017-10-30T01:38:16.250Z,50.98
2017-10-30T01:39:16.567Z,50.34
2017-10-30T01:40:16.546Z,52.53
2017-10-30T01:41:16.208Z,53.28
2017-10-30T01:42:16.508Z,52.05
2017-10-30T01:43:16.486Z,52.91
2017-10-30T01:44:16.468Z,52.24
2017-10-30T01:45:16.117Z,51.01
2017-10-30T01:46:16.100Z,51.2
2017-10-30T01:47:16.419Z,53.28
2017-10-30T01:48:16.066Z,54.05
2017-10-30T01:49:16.382Z,54.05
2017-10-30T01:50:16.027Z,54.24
2017-10-30T01:51:16.346Z,53.66
2017-10-30T01:52:16.320Z,53.09
2017-10-30T01:53:15.967Z,53.28
2017-10-30T01:54:15.944Z,54.05
2017-10-30T01:55:16.259Z,52.33
2017-10-30T01:56:16.237Z,52.53
2017-10-30T01:57:16.219Z,53.38
2017-10-30T01:58:15.870Z,53.09
2017-10-30T01:59:16.287Z,54.43
2017-10-30T02:00:16.167Z,54.33
2017-10-30T02:01:16.145Z,53.09
2017-10-30T02:02:16.125Z,54.05
2017-10-30T02:03:16.110Z,54.14
2017-10-30T02:04:16.093Z,53.47
2017-10-30T02:05:16.073Z,54.05
2017-10-30T02:06:16.054Z,52.14
2017-10-30T02:07:16.034Z,53.19
2017-10-30T02:08:15.682Z,51.48
2017-10-30T02:09:15.998Z,51.39
2017-10-30T02:10:15.987Z,52.24
2017-10-30T02:11:15.622Z,51.1
2017-10-30T02:12:15.941Z,53.19
2017-10-30T02:13:15.924Z,54.61
2017-10-30T02:14:15.897Z,54.14
2017-10-30T02:15:15.885Z,54.14
2017-10-30T02:16:15.532Z,53.54
2017-10-30T02:17:15.850Z,54.24
2017-10-30T02:18:15.827Z,54.05
2017-10-30T02:19:15.812Z,55.18
2017-10-30T02:20:15.458Z,53.66
2017-10-30T02:21:15.441Z,53.28
2017-10-30T02:22:15.754Z,54.14
2017-10-30T02:23:15.729Z,53.95
2017-10-30T02:24:15.712Z,53.95
2017-10-30T02:25:15.362Z,54.43
2017-10-30T02:26:15.341Z,54.14
2017-10-30T02:27:15.655Z,53.54
2017-10-30T02:28:15.637Z,53.09
2017-10-30T02:29:15.280Z,54.43
2017-10-30T02:30:15.263Z,55.76
2017-10-30T02:31:15.244Z,55.85
2017-10-30T02:32:15.228Z,56.29
2017-10-30T02:33:15.576Z,56.13
2017-10-30T02:34:15.190Z,56.89
2017-10-30T02:35:15.170Z,58.22
2017-10-30T02:36:15.491Z,56.99
2017-10-30T02:37:15.136Z,56.23
2017-10-30T02:38:15.452Z,57.09
2017-10-30T02:39:15.426Z,55.94
2017-10-30T02:40:15.430Z,57.09
2017-10-30T02:41:15.398Z,57.06
2017-10-30T02:42:15.372Z,56.99
2017-10-30T02:43:15.347Z,56.87
2017-10-30T02:44:14.996Z,55.35
2017-10-30T02:45:15.413Z,54.21
2017-10-30T02:46:14.967Z,54.39
2017-10-30T02:47:15.281Z,54.39
2017-10-30T02:48:15.259Z,54.97
2017-10-30T02:49:15.235Z,54.58
2017-10-30T02:50:14.886Z,55.18
2017-10-30T02:51:15.203Z,55.91
2017-10-30T02:52:14.852Z,55.91
2017-10-30T02:53:15.174Z,55.54
2017-10-30T02:54:15.150Z,56.2
2017-10-30T02:55:15.133Z,55.63
2017-10-30T02:56:14.777Z,56.29
2017-10-30T02:57:15.088Z,57.34
2017-10-30T02:58:15.068Z,56.39
2017-10-30T02:59:14.712Z,56.77
2017-10-30T03:00:15.031Z,55.54
2017-10-30T03:01:15.008Z,54.3
2017-10-30T03:02:14.993Z,54.97
2017-10-30T03:03:14.640Z,54.39
2017-10-30T03:04:14.618Z,54.49
2017-10-30T03:05:14.930Z,54.49
2017-10-30T03:06:14.917Z,52.97
2017-10-30T03:07:14.562Z,52.12
2017-10-30T03:08:14.544Z,51.74
2017-10-30T03:09:14.519Z,51.93
2017-10-30T03:10:14.502Z,51.17
2017-10-30T03:11:14.819Z,49.65
2017-10-30T03:12:14.800Z,50.89
2017-10-30T03:13:14.781Z,51.36
2017-10-30T03:14:14.432Z,51.36
2017-10-30T03:15:14.735Z,52.12
2017-10-30T03:16:14.721Z,51.07
2017-10-30T03:17:14.705Z,51.55
2017-10-30T03:18:14.681Z,52.22
2017-10-30T03:19:14.334Z,53.26
2017-10-30T03:20:14.311Z,53.16
2017-10-30T03:21:14.627Z,54.02
2017-10-30T03:22:14.610Z,53.26
2017-10-30T03:23:14.255Z,53.07
2017-10-30T03:24:14.570Z,52.09
2017-10-30T03:25:14.215Z,52
2017-10-30T03:26:14.529Z,51.05
2017-10-30T03:27:14.520Z,51.14
2017-10-30T03:28:14.162Z,51.14
2017-10-30T03:29:14.478Z,49.91
2017-10-30T03:30:14.455Z,48.01
2017-10-30T03:31:14.101Z,48.2
2017-10-30T03:32:14.416Z,45.83
2017-10-30T03:33:14.403Z,45.64
2017-10-30T03:34:14.040Z,45.17
2017-10-30T03:35:14.365Z,45.07
2017-10-30T03:36:14.334Z,40.89
2017-10-30T03:37:14.313Z,43.55
2017-10-30T03:38:14.299Z,44.31
2017-10-30T03:39:14.283Z,43.17
2017-10-30T03:40:13.923Z,43.65
2017-10-30T03:41:14.343Z,42.7
2017-10-30T03:42:14.217Z,41.66
2017-10-30T03:43:13.875Z,40.89
2017-10-30T03:44:13.850Z,41.85
2017-10-30T03:45:14.167Z,43.36
2017-10-30T03:46:14.136Z,43.08
2017-10-30T03:47:13.803Z,43.08
2017-10-30T03:48:13.773Z,43.08
2017-10-30T03:49:13.747Z,43.27
2017-10-30T03:50:14.066Z,43.46
2017-10-30T03:51:14.046Z,43.27
2017-10-30T03:52:14.035Z,43.27
2017-10-30T03:53:13.677Z,43.55
2017-10-30T03:54:13.653Z,44.02
2017-10-30T03:55:13.638Z,43.29
2017-10-30T03:56:13.955Z,43.38
2017-10-30T03:57:13.592Z,43.76
2017-10-30T03:58:13.914Z,43.76
2017-10-30T03:59:13.896Z,43.57
2017-10-30T04:00:13.877Z,43.67
2017-10-30T04:01:13.516Z,43.29
2017-10-30T04:02:13.501Z,43.76
2017-10-30T04:03:13.480Z,44.14
2017-10-30T04:04:13.799Z,43.95
2017-10-30T04:05:13.775Z,44.43
2017-10-30T04:06:13.753Z,43.86
2017-10-30T04:07:13.740Z,44.34
2017-10-30T04:08:13.712Z,44.02
2017-10-30T04:09:13.691Z,44.62
2017-10-30T04:10:13.339Z,44.31
2017-10-30T04:11:13.319Z,44.31
2017-10-30T04:12:13.638Z,44.5
2017-10-30T04:13:13.653Z,44.79
2017-10-30T04:14:13.596Z,44.12
2017-10-30T04:15:13.577Z,42.6
2017-10-30T04:16:13.558Z,41.94
2017-10-30T04:17:13.548Z,41.85
2017-10-30T04:18:13.523Z,41.08
2017-10-30T04:19:13.525Z,40.8
2017-10-30T04:20:13.155Z,39.85
2017-10-30T04:21:13.473Z,40.04
2017-10-30T04:22:13.462Z,40.52
2017-10-30T04:23:13.426Z,39.85
2017-10-30T04:24:13.416Z,38.53
2017-10-30T04:25:13.384Z,38.62
2017-10-30T04:26:13.363Z,38.43
2017-10-30T04:27:13.344Z,37.38
2017-10-30T04:28:13.327Z,37.29
2017-10-30T04:29:13.313Z,36.44
2017-10-30T04:30:12.958Z,36.05
2017-10-30T04:31:12.940Z,36.24
2017-10-30T04:32:13.352Z,36.63
2017-10-30T04:33:13.227Z,35.58
2017-10-30T04:34:12.884Z,34.82
2017-10-30T04:35:13.190Z,35.11
2017-10-30T04:36:13.171Z,33.87
2017-10-30T04:37:12.817Z,34.54
2017-10-30T04:38:12.799Z,34.25
2017-10-30T04:39:13.114Z,34.92
2017-10-30T04:40:12.757Z,35.01
2017-10-30T04:41:13.080Z,35.3
2017-10-30T04:42:13.161Z,35.49
2017-10-30T04:43:13.032Z,34.06
2017-10-30T04:44:12.678Z,34.63
2017-10-30T04:45:12.661Z,35.11
2017-10-30T04:46:12.647Z,33.11
2017-10-30T04:47:12.960Z,33.59
2017-10-30T04:48:12.934Z,33.5
2017-10-30T04:49:12.582Z,33.4
2017-10-30T04:50:12.908Z,34.16
2017-10-30T04:51:12.874Z,33.97
2017-10-30T04:52:12.866Z,34.06
2017-10-30T04:53:12.532Z,34.06
2017-10-30T04:54:12.832Z,34.92
2017-10-30T04:55:12.464Z,35.49
2017-10-30T04:56:12.781Z,35.96
2017-10-30T04:57:12.430Z,35.3
2017-10-30T04:58:12.409Z,35.68
2017-10-30T04:59:12.389Z,35.77
2017-10-30T05:00:12.701Z,35.39
2017-10-30T05:01:12.350Z,35.01
2017-10-30T05:02:12.668Z,35.3
2017-10-30T05:03:12.313Z,34.92
2017-10-30T05:04:12.636Z,33.87
2017-10-30T05:05:12.277Z,34.63
2017-10-30T05:06:12.590Z,34.82
2017-10-30T05:07:12.241Z,34.82
2017-10-30T05:08:12.555Z,35.39
2017-10-30T05:09:12.528Z,36.15
2017-10-30T05:10:12.518Z,36.15
2017-10-30T05:11:12.486Z,36.24
2017-10-30T05:12:12.133Z,36.15
2017-10-30T05:13:12.450Z,35.77
2017-10-30T05:14:12.092Z,36.44
2017-10-30T05:15:12.085Z,36.15
2017-10-30T05:16:12.052Z,35.39
2017-10-30T05:17:12.046Z,35.49
2017-10-30T05:18:12.355Z,36.15
2017-10-30T05:19:12.332Z,36.15
2017-10-30T05:20:12.313Z,35.96
2017-10-30T05:21:11.963Z,35.96
2017-10-30T05:22:11.939Z,36.15
2017-10-30T05:23:12.258Z,35.96
2017-10-30T05:24:12.237Z,34.82
2017-10-30T05:25:12.212Z,35.88
2017-10-30T05:26:12.199Z,37.19
2017-10-30T05:27:12.172Z,36.53
2017-10-30T05:28:12.158Z,35.96
2017-10-30T05:29:11.805Z,36.65
2017-10-30T05:30:11.782Z,36.26
2017-10-30T05:31:12.098Z,36.83
2017-10-30T05:32:11.945Z,35.98
2017-10-30T05:33:11.736Z,38.82
2017-10-30T05:34:12.049Z,38.26
2017-10-30T05:35:12.033Z,38.35
2017-10-30T05:36:11.666Z,38.45
2017-10-30T05:37:11.651Z,38.64
2017-10-30T05:38:11.962Z,37.97
2017-10-30T05:39:11.615Z,37.4
2017-10-30T05:40:11.588Z,38.07
2017-10-30T05:41:11.909Z,37.95
2017-10-30T05:42:11.887Z,38.62
2017-10-30T05:43:11.529Z,37.78
2017-10-30T05:44:11.512Z,37.19
2017-10-30T05:45:11.492Z,36.15
2017-10-30T05:46:11.810Z,36.65
2017-10-30T05:47:11.783Z,37.12
2017-10-30T05:48:11.773Z,37.97
2017-10-30T05:49:11.413Z,38.26
2017-10-30T05:50:11.393Z,37.78
2017-10-30T05:51:11.725Z,38.07
2017-10-30T05:52:11.698Z,38.26
2017-10-30T05:53:11.341Z,38.07
2017-10-30T05:54:11.655Z,37.12
2017-10-30T05:55:11.636Z,37.4
2017-10-30T05:56:11.617Z,37.21
2017-10-30T05:57:11.605Z,37.59
2017-10-30T05:58:11.241Z,38.54
2017-10-30T05:59:11.219Z,38.54
2017-10-30T06:00:11.551Z,38.26
2017-10-30T06:01:11.182Z,39.59
2017-10-30T06:02:11.163Z,39.87
2017-10-30T06:03:11.477Z,40.25
2017-10-30T06:04:11.457Z,40.63
2017-10-30T06:05:11.441Z,40.72
2017-10-30T06:06:11.423Z,40.82
2017-10-30T06:07:11.065Z,40.72
2017-10-30T06:08:11.074Z,41.86
2017-10-30T06:09:11.361Z,42.15
2017-10-30T06:10:11.349Z,42.15
2017-10-30T06:11:10.989Z,43.1
2017-10-30T06:12:11.313Z,43.38
2017-10-30T06:13:10.953Z,42.53
2017-10-30T06:14:11.267Z,41.86
2017-10-30T06:15:11.245Z,42.63
2017-10-30T06:16:10.893Z,43.38
2017-10-30T06:17:11.206Z,43.19
2017-10-30T06:18:10.862Z,42.15
2017-10-30T06:19:10.837Z,43.38
2017-10-30T06:20:11.163Z,43.76
2017-10-30T06:21:10.800Z,43.1
2017-10-30T06:22:10.780Z,42.72
2017-10-30T06:23:11.093Z,42.15
2017-10-30T06:24:11.179Z,40.92
2017-10-30T06:25:10.732Z,42.15
2017-10-30T06:26:11.038Z,42.53
2017-10-30T06:27:10.685Z,41.58
2017-10-30T06:28:10.666Z,41.96
2017-10-30T06:29:10.649Z,41.3
2017-10-30T06:30:10.636Z,41.86
2017-10-30T06:31:10.948Z,41.86
2017-10-30T06:32:10.592Z,41.2
2017-10-30T06:33:10.581Z,41.49
2017-10-30T06:34:10.651Z,41.96
2017-10-30T06:35:10.870Z,41.77
2017-10-30T06:36:10.513Z,41.86
2017-10-30T06:37:10.495Z,42.34
2017-10-30T06:38:10.808Z,41.3
2017-10-30T06:39:10.895Z,40.53
2017-10-30T06:40:10.768Z,40.82
2017-10-30T06:41:10.808Z,39.68
2017-10-30T06:42:10.738Z,39.01
2017-10-30T06:43:10.717Z,38.92
2017-10-30T06:44:10.946Z,39.87
2017-10-30T06:45:10.677Z,39.97
2017-10-30T06:46:10.324Z,39.87
2017-10-30T06:47:10.635Z,38.45
2017-10-30T06:48:10.621Z,37.21
2017-10-30T06:49:10.599Z,37.12
2017-10-30T06:50:10.253Z,37.5
2017-10-30T06:51:10.576Z,37.5
2017-10-30T06:52:10.204Z,36.46
2017-10-30T06:53:10.522Z,36.74
2017-10-30T06:54:10.500Z,36.74
2017-10-30T06:55:10.488Z,36.65
2017-10-30T06:56:10.480Z,36.26
2017-10-30T06:57:10.450Z,36.07
2017-10-30T06:58:10.433Z,36.93
2017-10-30T06:59:10.072Z,37.21
2017-10-30T07:00:10.058Z,37.4
2017-10-30T07:01:10.377Z,38.26
2017-10-30T07:02:10.362Z,38.07
2017-10-30T07:03:09.994Z,38.45
2017-10-30T07:04:09.980Z,38.64
2017-10-30T07:05:10.297Z,38.35
2017-10-30T07:06:10.274Z,38.07
2017-10-30T07:07:09.923Z,37.78
2017-10-30T07:08:09.902Z,38.65
2017-10-30T07:09:10.218Z,40.92
2017-10-30T07:10:10.198Z,40.84
2017-10-30T07:11:09.844Z,40.84
2017-10-30T07:12:09.830Z,41.98
2017-10-30T07:13:10.175Z,44.45
2017-10-30T07:14:09.794Z,44.35
2017-10-30T07:15:10.102Z,45.78
2017-10-30T07:16:10.086Z,45.59
2017-10-30T07:17:10.071Z,45.87
2017-10-30T07:18:09.720Z,48.35
2017-10-30T07:19:10.030Z,47.97
2017-10-30T07:20:10.006Z,48.63
2017-10-30T07:21:09.993Z,48.16
2017-10-30T07:22:09.640Z,47.49
2017-10-30T07:23:09.955Z,48.44
2017-10-30T07:24:09.601Z,47.77
2017-10-30T07:25:09.917Z,47.87
2017-10-30T07:26:09.903Z,48.25
2017-10-30T07:27:09.546Z,46.64
2017-10-30T07:28:09.866Z,45.97
2017-10-30T07:29:09.842Z,45.12
2017-10-30T07:30:09.823Z,45.21
2017-10-30T07:31:09.820Z,45.78
2017-10-30T07:32:09.652Z,46.45
2017-10-30T07:33:09.435Z,47.3
2017-10-30T07:34:09.746Z,46.06
2017-10-30T07:35:09.835Z,47.39
2017-10-30T07:36:09.380Z,46
2017-10-30T07:37:09.360Z,46.37
2017-10-30T07:38:09.348Z,46.56
2017-10-30T07:39:09.662Z,45.9
2017-10-30T07:40:09.303Z,46.19
2017-10-30T07:41:09.287Z,46.37
2017-10-30T07:42:09.607Z,49.98
2017-10-30T07:43:09.249Z,49.13
2017-10-30T07:44:09.585Z,52.55
2017-10-30T07:45:09.659Z,53.88
2017-10-30T07:46:09.540Z,53.97
2017-10-30T07:47:09.181Z,53.12
2017-10-30T07:48:09.502Z,53.41
2017-10-30T07:49:09.144Z,54.64
2017-10-30T07:50:09.124Z,54.74
2017-10-30T07:51:09.439Z,55.02
2017-10-30T07:52:09.423Z,55.5
2017-10-30T07:53:09.401Z,55.59
2017-10-30T07:54:09.382Z,52.55
2017-10-30T07:55:09.372Z,55.02
2017-10-30T07:56:09.353Z,56.16
2017-10-30T07:57:08.997Z,58.16
2017-10-30T07:58:09.318Z,57.97
2017-10-30T07:59:09.292Z,58.73
2017-10-30T08:00:08.946Z,57.5
2017-10-30T08:01:09.255Z,59.01
2017-10-30T08:02:09.240Z,59.77
2017-10-30T08:03:09.230Z,62.05
2017-10-30T08:04:08.870Z,62.53
2017-10-30T08:05:09.186Z,64.14
2017-10-30T08:06:08.835Z,62.08
2017-10-30T08:07:09.151Z,65.51
2017-10-30T08:08:09.136Z,61.87
2017-10-30T08:09:08.780Z,59.87
2017-10-30T08:10:09.105Z,59.71
2017-10-30T08:11:09.086Z,61.13
2017-10-30T08:12:08.722Z,58
2017-10-30T08:13:09.040Z,62.27
2017-10-30T08:14:08.696Z,60.47
2017-10-30T08:15:08.678Z,60.85
2017-10-30T08:16:08.996Z,63.32
2017-10-30T08:17:08.978Z,62.75
2017-10-30T08:18:08.953Z,62.08
2017-10-30T08:19:08.937Z,59.9
2017-10-30T08:20:08.918Z,61.04
2017-10-30T08:21:08.568Z,60.18
2017-10-30T08:22:08.895Z,60.85
2017-10-30T08:23:08.533Z,63.79
2017-10-30T08:24:08.849Z,67.03
2017-10-30T08:25:08.503Z,64.27
2017-10-30T08:26:08.816Z,63.99
2017-10-30T08:27:08.469Z,65.41
2017-10-30T08:28:08.445Z,64.18
2017-10-30T08:29:08.767Z,63.89
2017-10-30T08:30:08.743Z,66.65
2017-10-30T08:31:08.730Z,66.36
2017-10-30T08:32:08.381Z,66.74
2017-10-30T08:33:08.357Z,66.94
2017-10-30T08:34:08.681Z,66.94
2017-10-30T08:35:08.658Z,65.7
2017-10-30T08:36:08.309Z,65.32
2017-10-30T08:37:08.628Z,70.54
2017-10-30T08:38:08.618Z,71.72
2017-10-30T08:39:08.261Z,71.82
2017-10-30T08:40:08.573Z,72.67
2017-10-30T08:41:08.224Z,72.2
2017-10-30T08:42:08.545Z,72.67
2017-10-30T08:43:08.527Z,71.72
2017-10-30T08:44:08.174Z,70.87
2017-10-30T08:45:08.485Z,69.06
2017-10-30T08:46:08.189Z,69.73
2017-10-30T08:47:08.120Z,69.25
2017-10-30T08:48:08.443Z,68.4
2017-10-30T08:49:08.420Z,70.97
2017-10-30T08:50:08.070Z,70.87
2017-10-30T08:51:08.057Z,70.58
2017-10-30T08:52:08.040Z,74.67
2017-10-30T08:53:08.351Z,74.58
2017-10-30T08:54:08.006Z,75.81
2017-10-30T08:55:07.987Z,78.19
2017-10-30T08:56:07.971Z,77.34
2017-10-30T08:57:07.954Z,73.82
2017-10-30T08:58:08.272Z,74.01
2017-10-30T08:59:07.923Z,75.91
2017-10-30T09:00:08.243Z,75.34
2017-10-30T09:01:08.225Z,72.2
2017-10-30T09:02:08.206Z,73.82
2017-10-30T09:03:08.199Z,78.14
2017-10-30T09:04:08.175Z,74.8
2017-10-30T09:05:08.167Z,74.71
2017-10-30T09:06:07.808Z,72.81
2017-10-30T09:07:08.122Z,76.71
2017-10-30T09:08:08.110Z,75.76
2017-10-30T09:09:08.092Z,72.81
2017-10-30T09:10:08.079Z,75.57
2017-10-30T09:11:08.060Z,76.52
2017-10-30T09:12:07.712Z,76.23
2017-10-30T09:13:08.031Z,77.66
2017-10-30T09:14:08.011Z,79.09
2017-10-30T09:15:07.994Z,76.33
2017-10-30T09:16:07.645Z,74.33
2017-10-30T09:17:07.968Z,74.04
2017-10-30T09:18:07.947Z,73.85
2017-10-30T09:19:07.929Z,75.95
2017-10-30T09:20:07.958Z,76.71
2017-10-30T09:21:07.896Z,74.8
2017-10-30T09:22:07.548Z,77.19
2017-10-30T09:23:07.535Z,81.7
2017-10-30T09:24:07.860Z,85.7
2017-10-30T09:25:07.837Z,83.89
2017-10-30T09:26:07.824Z,82.84
2017-10-30T09:27:07.478Z,83.7
2017-10-30T09:28:07.794Z,83.32
2017-10-30T09:29:07.775Z,81.89
2017-10-30T09:30:07.422Z,80.08
2017-10-30T09:31:07.410Z,83.7
2017-10-30T09:32:08.180Z,88.84
2017-10-30T09:33:07.708Z,85.41
2017-10-30T09:34:07.360Z,88.08
2017-10-30T09:35:07.690Z,88.37
2017-10-30T09:36:07.665Z,86.27
2017-10-30T09:37:07.649Z,86.94
2017-10-30T09:38:07.302Z,84.36
2017-10-30T09:39:07.292Z,84.36
2017-10-30T09:40:07.615Z,88.08
2017-10-30T09:41:07.592Z,84.94
2017-10-30T09:42:07.341Z,84.36
2017-10-30T09:43:07.227Z,85.03
2017-10-30T09:44:07.540Z,85.99
2017-10-30T09:45:07.195Z,88.65
2017-10-30T09:46:07.180Z,88.65
2017-10-30T09:47:07.504Z,86.08
2017-10-30T09:48:07.482Z,86.65
2017-10-30T09:49:07.473Z,85.41
2017-10-30T09:50:07.456Z,87.84
2017-10-30T09:51:07.437Z,93.46
2017-10-30T09:52:07.420Z,89.13
2017-10-30T09:53:07.427Z,88.03
2017-10-30T09:54:07.391Z,90.12
2017-10-30T09:55:07.045Z,85.64
2017-10-30T09:56:07.364Z,89.03
2017-10-30T09:57:07.346Z,93.84
2017-10-30T09:58:07.336Z,92.18
2017-10-30T09:59:07.321Z,91.03
2017-10-30T10:00:06.969Z,87.74
2017-10-30T10:01:06.956Z,89.65
2017-10-30T10:02:06.943Z,91.08
2017-10-30T10:03:07.257Z,92.41
2017-10-30T10:04:06.918Z,91.36
2017-10-30T10:05:07.238Z,89.07
2017-10-30T10:06:06.884Z,91.17
2017-10-30T10:07:07.200Z,93.27
2017-10-30T10:08:07.185Z,93.27
2017-10-30T10:09:07.173Z,89.84
2017-10-30T10:10:07.159Z,91.84
2017-10-30T10:11:07.149Z,91.17
2017-10-30T10:12:07.131Z,92.27
2017-10-30T10:13:06.782Z,93.84
2017-10-30T10:14:06.764Z,91.84
2017-10-30T10:15:07.089Z,90.98
2017-10-30T10:16:06.737Z,95.03
2017-10-30T10:17:07.059Z,97.8
2017-10-30T10:18:07.040Z,95.89
2017-10-30T10:19:07.032Z,97.51
2017-10-30T10:20:07.010Z,99.99
2017-10-30T10:21:06.662Z,99.6
2017-10-30T10:22:06.987Z,99.99
2017-10-30T10:23:06.637Z,96.08
2017-10-30T10:24:06.956Z,97.61
2017-10-30T10:25:06.607Z,99.32
2017-10-30T10:26:06.927Z,97.13
2017-10-30T10:27:06.912Z,98.27
2017-10-30T10:28:06.895Z,99.99
2017-10-30T10:29:06.883Z,99.99
2017-10-30T10:30:06.868Z,99.99
2017-10-30T10:31:06.518Z,99.99
2017-10-30T10:32:06.845Z,99.99
2017-10-30T10:33:06.823Z,99.99
2017-10-30T10:34:06.810Z,99.99
2017-10-30T10:35:06.462Z,99.99
2017-10-30T10:36:06.782Z,99.99
2017-10-30T10:37:06.771Z,99.99
2017-10-30T10:38:06.425Z,99.99
2017-10-30T10:39:06.410Z,99.99
2017-10-30T10:40:06.732Z,99.99
2017-10-30T10:41:06.382Z,99.99
2017-10-30T10:42:06.706Z,99.99
2017-10-30T10:43:06.698Z,99.99
2017-10-30T10:44:06.681Z,99.99
2017-10-30T10:45:06.673Z,99.99
2017-10-30T10:46:06.652Z,99.99
2017-10-30T10:47:06.640Z,99.99
2017-10-30T10:48:06.399Z,99.99
2017-10-30T10:49:06.618Z,99.99
2017-10-30T10:50:06.271Z,99.99
2017-10-30T10:51:06.586Z,99.99
2017-10-30T10:52:06.247Z,99.99
2017-10-30T10:53:06.234Z,99.99
2017-10-30T10:54:06.221Z,99.99
2017-10-30T10:55:06.545Z,99.99
2017-10-30T10:56:06.197Z,99.99
2017-10-30T10:57:06.514Z,99.99
2017-10-30T10:58:06.603Z,99.99
2017-10-30T10:59:06.157Z,99.99
2017-10-30T11:00:06.144Z,99.99
2017-10-30T11:01:06.130Z,99.99
2017-10-30T11:02:06.119Z,99.99
2017-10-30T11:03:06.445Z,99.99
2017-10-30T11:04:06.102Z,99.99
2017-10-30T11:05:06.082Z,99.99
2017-10-30T11:06:06.404Z,99.99
2017-10-30T11:07:06.060Z,99.99
2017-10-30T11:08:06.382Z,99.99
2017-10-30T11:09:06.362Z,99.99
2017-10-30T11:10:06.356Z,99.99
2017-10-30T11:11:06.341Z,99.99
2017-10-30T11:12:06.330Z,99.99
2017-10-30T11:13:05.979Z,99.99
2017-10-30T11:14:06.311Z,99.99
2017-10-30T11:15:06.298Z,99.99
2017-10-30T11:16:06.276Z,99.99
2017-10-30T11:17:06.272Z,99.99
2017-10-30T11:18:05.923Z,99.99
2017-10-30T11:19:06.260Z,99.99
2017-10-30T11:20:05.896Z,99.99
2017-10-30T11:21:06.220Z,99.99
2017-10-30T11:22:06.227Z,99.99
2017-10-30T11:23:05.858Z,99.99
2017-10-30T11:24:05.849Z,99.99
2017-10-30T11:25:05.833Z,99.99
2017-10-30T11:26:05.822Z,99.99
2017-10-30T11:27:05.815Z,99.99
2017-10-30T11:28:06.131Z,99.99
2017-10-30T11:29:06.123Z,99.99
2017-10-30T11:30:06.107Z,99.99
2017-10-30T11:31:06.103Z,99.99
2017-10-30T11:32:06.288Z,99.99
2017-10-30T11:33:06.075Z,99.99
2017-10-30T11:34:05.731Z,99.99
2017-10-30T11:35:06.058Z,99.99
2017-10-30T11:36:06.042Z,99.99
2017-10-30T11:37:05.696Z,99.99
2017-10-30T11:38:06.019Z,99.99
2017-10-30T11:39:05.681Z,99.99
2017-10-30T11:40:05.673Z,99.99
2017-10-30T11:41:05.649Z,99.99
2017-10-30T11:42:05.967Z,99.99
2017-10-30T11:43:05.971Z,99.99
2017-10-30T11:44:05.954Z,99.99
2017-10-30T11:45:05.948Z,99.99
2017-10-30T11:46:05.602Z,99.99
2017-10-30T11:47:05.585Z,99.99
2017-10-30T11:48:05.908Z,99.99
2017-10-30T11:49:05.897Z,99.99
2017-10-30T11:50:05.888Z,99.99
2017-10-30T11:51:05.881Z,99.99
2017-10-30T11:52:05.543Z,99.99
2017-10-30T11:53:05.863Z,99.99
2017-10-30T11:54:05.864Z,99.99
2017-10-30T11:55:05.851Z,99.99
2017-10-30T11:56:05.836Z,99.99
2017-10-30T11:57:05.503Z,99.99
2017-10-30T11:58:05.830Z,99.99
2017-10-30T11:59:05.928Z,99.99
2017-10-30T12:00:05.819Z,99.99
2017-10-30T12:01:05.813Z,99.99
2017-10-30T12:02:05.801Z,99.99
2017-10-30T12:03:05.800Z,99.99
2017-10-30T12:04:05.795Z,99.99
2017-10-30T12:05:05.780Z,99.99
2017-10-30T12:06:05.445Z,99.99
2017-10-30T12:07:05.766Z,99.99
2017-10-30T12:08:05.758Z,99.99
2017-10-30T12:09:05.427Z,99.24
2017-10-30T12:10:05.750Z,99.99
2017-10-30T12:11:05.407Z,99.99
2017-10-30T12:12:05.733Z,99.99
2017-10-30T12:13:05.398Z,99.99
2017-10-30T12:14:05.729Z,99.99
2017-10-30T12:15:05.385Z,99.99
2017-10-30T12:16:05.389Z,99.99
2017-10-30T12:17:05.722Z,99.99
2017-10-30T12:18:05.700Z,86.58
2017-10-30T12:19:05.711Z,89.79
2017-10-30T12:20:05.367Z,87.45
2017-10-30T12:21:05.688Z,98.91
2017-10-30T12:22:05.352Z,96.08
2017-10-30T12:23:05.344Z,99.99
2017-10-30T12:24:05.682Z,99.99
2017-10-30T12:25:05.664Z,99.99
2017-10-30T12:26:05.660Z,99.99
2017-10-30T12:27:05.662Z,99.99
2017-10-30T12:28:05.319Z,99.99
2017-10-30T12:29:05.647Z,99.99
2017-10-30T12:30:05.308Z,99.99
2017-10-30T12:31:05.298Z,99.99
2017-10-30T12:32:05.629Z,99.99
2017-10-30T12:33:05.291Z,99.99
2017-10-30T12:34:05.279Z,99.99
2017-10-30T12:35:05.657Z,99.99
2017-10-30T12:36:05.263Z,99.99
2017-10-30T12:37:05.262Z,99.99
2017-10-30T12:38:05.579Z,99.99
2017-10-30T12:39:05.243Z,99.99
2017-10-30T12:40:05.664Z,99.99
2017-10-30T12:41:05.238Z,99.99
2017-10-30T12:42:05.553Z,99.99
2017-10-30T12:43:05.205Z,99.99
2017-10-30T12:44:05.526Z,99.99
2017-10-30T12:45:05.518Z,99.99
2017-10-30T12:46:05.178Z,99.99
2017-10-30T12:47:05.165Z,99.99
2017-10-30T12:48:05.495Z,99.99
2017-10-30T12:49:05.141Z,99.99
2017-10-30T12:50:05.663Z,99.99
2017-10-30T12:51:05.454Z,99.99
2017-10-30T12:52:05.126Z,99.99
2017-10-30T12:53:05.092Z,99.99
2017-10-30T12:54:05.422Z,99.99